Time;durP1;ratioP1;P1;durP2;ratioP2;P2;SDS_P1;SDS_P2;PMS_P1;PMS_P2;Temp;Humidity;BMP_temperature;BMP_pressure;BME280_temperature;BME280_humidity;BME280_pressure;Samples;Min_cycle;Max_cycle;Signal;HPM_P1;HPM_P2
2022/07/07 00:02:17;;;;;;;20.45;11.90;;;;;;;17.10;100.00;101924.66;5094455;28;20082;-71
2022/07/07 00:04:42;;;;;;;19.63;11.13;;;;;;;17.16;100.00;101919.16;5076281;28;20040;-72
2022/07/07 00:07:08;;;;;;;19.98;11.63;;;;;;;17.14;100.00;101923.16;5094497;28;20072;-71
2022/07/07 00:09:33;;;;;;;20.58;11.68;;;;;;;17.03;100.00;101903.13;5097467;28;20424;-72
2022/07/07 00:15:20;;;;;;;21.48;11.20;;;;;;;17.15;100.00;101922.09;5094577;28;20086;-71
2022/07/07 00:17:45;;;;;;;19.23;11.30;;;;;;;17.09;100.00;101907.63;5094127;28;20031;-71
2022/07/07 00:23:33;;;;;;;21.55;11.02;;;;;;;17.14;100.00;101915.03;5094730;28;20177;-72
2022/07/07 00:25:58;;;;;;;22.15;11.45;;;;;;;17.16;100.00;101902.94;5076102;28;20448;-71
2022/07/07 00:28:24;;;;;;;23.88;11.48;;;;;;;17.06;100.00;101894.59;5096912;28;20051;-72
2022/07/07 00:30:49;;;;;;;15.30;10.85;;;;;;;17.13;100.00;101898.00;5094077;28;20051;-71
2022/07/07 00:33:15;;;;;;;14.77;9.55;;;;;;;17.13;100.00;101886.38;5094142;28;20036;-71
2022/07/07 00:39:02;;;;;;;20.55;11.60;;;;;;;17.17;100.00;101879.44;5094310;28;20051;-70
2022/07/07 00:44:48;;;;;;;19.65;10.93;;;;;;;17.16;100.00;101870.50;5093579;28;20047;-71
2022/07/07 00:47:14;;;;;;;18.25;10.20;;;;;;;17.19;100.00;101871.91;5078780;28;20039;-72
2022/07/07 00:53:01;;;;;;;27.38;10.23;;;;;;;17.18;100.00;101863.00;5094273;28;20085;-71
2022/07/07 00:58:48;;;;;;;18.38;10.18;;;;;;;17.20;100.00;101858.16;5093558;28;20328;-72
2022/07/07 01:01:13;;;;;;;15.83;9.97;;;;;;;17.23;100.00;101859.56;5078661;28;20048;-72
2022/07/07 01:03:38;;;;;;;19.35;10.68;;;;;;;17.22;100.00;101858.75;5075235;28;20687;-72
2022/07/07 01:09:26;;;;;;;16.77;10.07;;;;;;;17.20;100.00;101862.75;5093445;28;20097;-73
2022/07/07 01:15:14;;;;;;;19.88;10.43;;;;;;;17.25;100.00;101866.41;5093483;28;20043;-71
2022/07/07 01:21:03;;;;;;;16.75;10.85;;;;;;;17.21;100.00;101864.41;5093574;28;20081;-73
2022/07/07 01:27:02;;;;;;;17.92;11.00;;;;;;;17.22;100.00;101857.94;5093462;28;20035;-73
2022/07/07 01:32:49;;;;;;;18.25;10.45;;;;;;;17.26;100.00;101856.41;5093522;28;20076;-73
2022/07/07 01:38:38;;;;;;;22.30;10.65;;;;;;;17.27;100.00;101855.34;5093090;28;20288;-74
2022/07/07 01:44:25;;;;;;;22.13;11.30;;;;;;;17.30;100.00;101844.06;5094730;28;20078;-73
2022/07/07 01:50:12;;;;;;;21.35;10.85;;;;;;;17.26;100.00;101826.66;5093135;28;20506;-73
2022/07/07 01:56:05;;;;;;;22.77;12.10;;;;;;;17.27;100.00;101833.72;5092410;28;20067;-74
2022/07/07 01:58:31;;;;;;;18.53;11.10;;;;;;;17.25;100.00;101831.25;5095690;28;20036;-73
2022/07/07 02:04:18;;;;;;;19.67;11.40;;;;;;;17.22;100.00;101830.91;5093040;28;20051;-73
2022/07/07 02:06:43;;;;;;;19.25;11.20;;;;;;;17.24;100.00;101826.91;5092557;28;20020;-73
2022/07/07 02:09:09;;;;;;;24.50;12.18;;;;;;;17.21;100.00;101829.25;5094106;28;20487;-72
2022/07/07 02:14:57;;;;;;;20.42;10.30;;;;;;;17.22;100.00;101825.50;5092442;28;20054;-73
2022/07/07 02:20:44;;;;;;;22.15;11.70;;;;;;;17.21;100.00;101819.28;5092554;28;20081;-74
2022/07/07 02:23:10;;;;;;;20.80;10.15;;;;;;;17.26;100.00;101813.16;5077114;28;20473;-73
2022/07/07 02:25:35;;;;;;;25.83;10.85;;;;;;;17.26;100.00;101819.38;5092858;28;20016;-73
2022/07/07 02:31:23;;;;;;;19.83;9.77;;;;;;;17.24;100.00;101812.56;5093196;28;20442;-73
2022/07/07 02:37:10;;;;;;;22.27;9.55;;;;;;;17.35;100.00;101809.06;5092600;28;20039;-72
2022/07/07 02:39:35;;;;;;;19.63;9.33;;;;;;;17.30;100.00;101814.31;5074349;28;20032;-72
2022/07/07 02:42:00;;;;;;;31.47;9.60;;;;;;;17.30;100.00;101806.22;5095103;28;20838;-75
2022/07/07 02:47:47;;;;;;;24.08;8.38;;;;;;;17.29;100.00;101815.38;5095091;28;20396;-73
2022/07/07 02:50:12;;;;;;;17.00;8.20;;;;;;;17.32;100.00;101817.63;5092159;28;20460;-73
2022/07/07 02:52:38;;;;;;;20.15;8.00;;;;;;;17.35;100.00;101809.06;5091943;28;20361;-74
2022/07/07 02:55:03;;;;;;;14.83;7.57;;;;;;;17.33;100.00;101811.16;5076938;28;20040;-74
2022/07/07 03:00:54;;;;;;;13.45;6.95;;;;;;;17.40;100.00;101835.38;5092176;28;20061;-74
2022/07/07 03:03:19;;;;;;;16.90;7.60;;;;;;;17.45;100.00;101825.50;5091725;28;20027;-72
2022/07/07 03:09:06;;;;;;;13.05;6.32;;;;;;;17.28;100.00;101814.56;5094720;28;20387;-73
2022/07/07 03:11:32;;;;;;;12.63;5.33;;;;;;;17.21;100.00;101821.97;5077162;28;20032;-73
2022/07/07 03:13:57;;;;;;;12.82;5.07;;;;;;;17.12;100.00;101833.38;5098249;28;20282;-72
2022/07/07 03:16:22;;;;;;;9.63;6.07;;;;;;;17.07;100.00;101831.38;5095130;28;20495;-71
2022/07/07 03:22:09;;;;;;;22.95;6.25;;;;;;;16.96;100.00;101832.16;5095400;28;20043;-73
2022/07/07 03:24:34;;;;;;;11.03;5.67;;;;;;;16.84;100.00;101837.53;5095034;28;20032;-73
2022/07/07 03:30:22;;;;;;;14.98;5.90;;;;;;;16.54;100.00;101836.72;5095078;28;20172;-73
2022/07/07 03:32:47;;;;;;;12.05;6.90;;;;;;;16.38;100.00;101830.88;5098150;28;20050;-74
2022/07/07 03:38:34;;;;;;;9.50;6.32;;;;;;;16.21;100.00;101832.56;5095081;28;20819;-73
2022/07/07 03:44:21;;;;;;;14.57;7.63;;;;;;;16.08;100.00;101830.84;5095058;28;20047;-73
2022/07/07 03:50:08;;;;;;;16.30;7.32;;;;;;;15.96;100.00;101827.28;5095123;28;20060;-75
2022/07/07 03:52:33;;;;;;;15.50;8.02;;;;;;;15.94;100.00;101831.25;5076533;28;20036;-74
2022/07/07 03:58:20;;;;;;;17.33;7.82;;;;;;;15.91;100.00;101829.00;5094815;28;20043;-73
2022/07/07 04:04:07;;;;;;;15.57;8.50;;;;;;;15.90;100.00;101821.94;5094497;28;20313;-73
2022/07/07 04:09:54;;;;;;;12.75;8.15;;;;;;;15.89;100.00;101809.50;5094760;28;20051;-73
2022/07/07 04:12:19;;;;;;;15.43;9.63;;;;;;;15.78;100.00;101806.50;5094236;28;20012;-74
2022/07/07 04:14:45;;;;;;;17.53;10.43;;;;;;;15.85;100.00;101805.59;5097152;28;20315;-74
2022/07/07 04:20:32;;;;;;;19.23;10.20;;;;;;;15.88;100.00;101803.28;5095381;28;20445;-73
2022/07/07 04:22:58;;;;;;;21.35;10.70;;;;;;;15.90;100.00;101797.66;5095629;28;20111;-73
2022/07/07 04:25:23;;;;;;;17.42;9.98;;;;;;;15.87;100.00;101808.91;5076065;28;20024;-73
2022/07/07 04:27:49;;;;;;;18.83;10.60;;;;;;;15.85;100.00;101805.59;5096980;28;20396;-73
2022/07/07 04:33:36;;;;;;;18.25;9.88;;;;;;;15.84;100.00;101807.47;5097290;28;20050;-73
2022/07/07 04:36:01;;;;;;;22.00;10.33;;;;;;;15.89;100.00;101812.19;5094100;28;20024;-72
2022/07/07 04:41:48;;;;;;;23.15;10.40;;;;;;;15.79;100.00;101835.13;5094146;28;20101;-75
2022/07/07 04:44:14;;;;;;;11.85;6.93;;;;;;;15.87;100.00;101849.34;5075730;28;20032;-72
2022/07/07 04:46:39;;;;;;;9.05;4.38;;;;;;;15.77;100.00;101842.63;5096851;28;20156;-72
2022/07/07 04:52:26;;;;;;;12.27;6.10;;;;;;;15.66;100.00;101845.25;5094005;28;20581;-73
2022/07/07 04:54:51;;;;;;;10.00;5.07;;;;;;;15.66;100.00;101854.16;5093882;28;20028;-72
2022/07/07 05:04:08;;;;;;;5.47;3.13;;;;;;;15.70;100.00;101852.66;5093836;28;20514;-72
2022/07/07 05:06:34;;;;;;;8.18;4.38;;;;;;;15.78;100.00;101852.34;5093448;28;20063;-71
2022/07/07 05:12:21;;;;;;;6.63;2.95;;;;;;;15.80;100.00;101861.03;5093397;28;20066;-71
2022/07/07 05:14:47;;;;;;;5.47;2.55;;;;;;;15.80;100.00;101860.22;5093443;28;20429;-71
2022/07/07 05:20:34;;;;;;;7.35;2.80;;;;;;;15.85;100.00;101873.03;5093603;28;20057;-73
2022/07/07 05:26:21;;;;;;;6.68;2.22;;;;;;;15.94;100.00;101882.50;5093445;28;20392;-72
2022/07/07 05:28:46;;;;;;;4.78;2.70;;;;;;;16.16;100.00;101880.97;5096030;28;20051;-73
2022/07/07 05:34:33;;;;;;;6.53;2.15;;;;;;;16.43;100.00;101882.31;5096137;28;20062;-74
2022/07/07 05:40:20;;;;;;;5.20;3.05;;;;;;;16.70;100.00;101887.41;5093118;28;20662;-72
2022/07/07 05:46:07;;;;;;;4.85;2.03;;;;;;;17.04;100.00;101904.78;5092927;28;20046;-73
2022/07/07 05:51:55;;;;;;;5.93;2.13;;;;;;;16.78;100.00;101921.38;5095872;28;20065;-73
2022/07/07 05:57:42;;;;;;;7.22;2.22;;;;;;;16.55;100.00;101922.06;5092856;28;20391;-72
2022/07/07 06:07:09;;;;;;;7.35;2.03;;;;;;;15.95;100.00;101940.81;5092673;28;20057;-72
2022/07/07 06:09:35;;;;;;;9.48;2.25;;;;;;;15.75;100.00;101944.50;5094417;28;20032;-74
2022/07/07 06:12:00;;;;;;;6.15;1.90;;;;;;;15.87;100.00;101941.06;5075561;28;20031;-73
2022/07/07 06:17:48;;;;;;;10.82;2.58;;;;;;;16.45;100.00;101960.38;5092769;28;20251;-70
2022/07/07 06:20:13;;;;;;;8.48;2.15;;;;;;;16.65;100.00;101970.94;5092448;28;20059;-71
2022/07/07 06:26:02;;;;;;;5.97;1.92;;;;;;;16.73;100.00;101978.78;5092579;28;20062;-72
2022/07/07 06:28:28;;;;;;;6.28;2.00;;;;;;;16.78;100.00;101978.13;5094981;28;20127;-72
2022/07/07 06:34:15;;;;;;;8.73;2.10;;;;;;;16.96;100.00;101986.19;5092283;28;20054;-72
2022/07/07 06:40:03;;;;;;;10.57;2.30;;;;;;;17.42;100.00;101984.72;5092440;28;20043;-73
2022/07/07 06:45:50;;;;;;;8.80;2.17;;;;;;;17.64;100.00;102002.88;5099143;28;20383;-72
2022/07/07 06:51:36;;;;;;;9.00;2.00;;;;;;;16.88;100.00;102014.34;5099293;28;20031;-73
2022/07/07 06:57:23;;;;;;;10.70;1.92;;;;;;;16.26;100.00;102018.13;5099107;28;20047;-73
2022/07/07 07:03:09;;;;;;;7.80;2.22;;;;;;;18.63;98.23;102022.00;5098748;28;20047;-74
2022/07/07 07:12:26;;;;;;;3.17;1.70;;;;;;;20.29;82.05;102014.41;5098836;28;20039;-73
2022/07/07 07:14:51;;;;;;;4.00;1.55;;;;;;;20.99;80.74;102026.47;5101306;28;20048;-72
2022/07/07 07:20:40;;;;;;;4.45;1.40;;;;;;;23.63;63.90;102021.88;5098570;28;20280;-73
2022/07/07 07:26:27;;;;;;;6.53;1.52;;;;;;;23.69;61.42;102045.38;5098756;28;20136;-70
2022/07/07 07:32:14;;;;;;;6.30;1.48;;;;;;;23.75;58.59;102031.47;5098388;28;20277;-70
2022/07/07 07:38:01;;;;;;;6.07;1.50;;;;;;;23.08;63.76;102065.16;5098752;28;20058;-71
2022/07/07 07:43:48;;;;;;;8.00;1.60;;;;;;;21.75;65.91;102054.50;5098298;28;20066;-71
2022/07/07 07:49:35;;;;;;;7.07;1.58;;;;;;;20.66;73.60;102060.03;5101125;28;20074;-70
2022/07/07 07:55:22;;;;;;;7.22;1.85;;;;;;;20.05;74.83;102061.81;5093665;28;20273;-70
2022/07/07 07:57:49;;;;;;;6.10;1.67;;;;;;;19.75;74.42;102071.09;5094714;28;20040;-69
2022/07/07 08:03:36;;;;;;;4.50;1.65;;;;;;;17.98;91.78;102078.13;5094463;28;20134;-71
2022/07/07 08:09:24;;;;;;;5.55;1.20;;;;;;;17.47;92.43;102084.88;5094073;28;20808;-71
2022/07/07 08:15:11;;;;;;;6.00;1.48;;;;;;;18.00;93.38;102076.84;5094479;28;20047;-73
2022/07/07 08:20:58;;;;;;;7.72;2.20;;;;;;;18.17;89.58;102091.31;5095201;28;20050;-75
2022/07/07 08:26:45;;;;;;;4.68;1.30;;;;;;;18.24;91.05;102107.47;5094272;28;20280;-74
2022/07/07 08:32:32;;;;;;;2.40;1.20;;;;;;;18.48;87.31;102100.16;5094646;28;20173;-71
2022/07/07 08:38:19;;;;;;;5.53;1.48;;;;;;;18.61;85.97;102088.28;5094000;28;20042;-73
2022/07/07 08:44:07;;;;;;;4.95;1.85;;;;;;;18.60;83.69;102106.44;5094335;28;20043;-72
2022/07/07 08:49:54;;;;;;;6.30;1.30;;;;;;;21.95;73.17;102097.41;5094194;28;20063;-73
2022/07/07 08:55:42;;;;;;;5.40;1.50;;;;;;;24.04;61.11;102116.44;5093616;28;20047;-72
2022/07/07 09:01:29;;;;;;;7.63;1.42;;;;;;;20.95;71.35;102120.50;5094219;28;20054;-73
2022/07/07 09:03:54;;;;;;;4.57;1.60;;;;;;;20.30;74.85;102119.28;5095674;28;20547;-73
2022/07/07 09:09:44;;;;;;;4.47;1.58;;;;;;;19.01;79.05;102120.91;5091180;28;20047;-74
2022/07/07 09:12:11;;;;;;;4.78;1.30;;;;;;;18.61;81.96;102132.47;5091923;28;20422;-73
2022/07/07 09:14:38;;;;;;;10.85;2.15;;;;;;;18.47;82.78;102139.16;5093593;28;20020;-73
2022/07/07 09:20:25;;;;;;;4.18;1.40;;;;;;;18.54;81.15;102126.34;5093608;28;20054;-75
2022/07/07 09:26:12;;;;;;;4.18;1.73;;;;;;;18.79;82.18;102145.06;5093776;28;20561;-74
2022/07/07 09:32:00;;;;;;;8.27;1.63;;;;;;;19.04;81.55;102161.91;5093339;28;20284;-73
2022/07/07 09:34:29;;;;;;;10.07;1.63;;;;;;;19.07;80.10;102157.88;5078454;28;20084;-74
2022/07/07 09:40:19;;;;;;;3.50;1.40;;;;;;;19.27;81.36;102174.59;5093444;28;20074;-74
2022/07/07 09:46:10;;;;;;;8.48;1.85;;;;;;;19.22;78.60;102160.94;5093469;28;20112;-73
2022/07/07 09:52:13;;;;;;;4.63;1.75;;;;;;;18.99;80.42;102174.53;5093279;28;20125;-73
2022/07/07 09:58:00;;;;;;;4.65;1.40;;;;;;;18.81;82.06;102197.19;5093418;28;20058;-72
2022/07/07 10:03:47;;;;;;;5.85;1.75;;;;;;;19.37;81.06;102196.53;5092989;28;20063;-72
2022/07/07 10:09:34;;;;;;;8.43;1.80;;;;;;;20.62;79.37;102208.41;5092599;28;20051;-71
2022/07/07 10:19:16;;;;;;;7.38;2.22;;;;;;;18.61;88.89;102219.16;5091653;28;20130;-73
2022/07/07 10:25:07;;;;;;;7.78;2.17;;;;;;;17.42;98.36;102228.91;5092728;28;20565;-72
2022/07/07 10:27:33;;;;;;;6.43;2.58;;;;;;;17.26;100.00;102232.19;5092253;28;20056;-73
2022/07/07 10:30:00;;;;;;;10.30;3.22;;;;;;;17.33;100.00;102233.75;5095291;28;20522;-73
2022/07/07 10:32:29;;;;;;;8.43;1.92;;;;;;;17.64;100.00;102242.81;5074016;28;20034;-73
2022/07/07 10:41:54;;;;;;;8.13;1.75;;;;;;;19.41;91.38;102253.84;5092293;28;20164;-74
2022/07/07 10:44:20;;;;;;;4.57;2.13;;;;;;;19.46;93.80;102246.66;5092035;28;20081;-73
2022/07/07 10:47:01;;;;;;;7.70;2.17;;;;;;;19.22;88.83;102246.91;5094883;28;20047;-73
2022/07/07 10:49:40;;;;;;;4.10;1.83;;;;;;;19.04;89.32;102259.50;5091942;28;20028;-72
2022/07/07 10:52:10;;;;;;;6.93;2.08;;;;;;;18.76;91.19;102256.66;5092825;28;20036;-73
2022/07/07 10:57:57;;;;;;;5.63;1.98;;;;;;;18.07;96.35;102267.03;5093021;28;20395;-73
2022/07/07 11:00:26;;;;;;;4.33;2.03;;;;;;;17.76;99.94;102267.25;5093261;28;20036;-72
2022/07/07 11:02:58;;;;;;;6.68;1.92;;;;;;;17.98;100.00;102283.84;5091582;28;20784;-74
2022/07/07 11:08:55;;;;;;;8.13;2.20;;;;;;;18.92;94.97;102282.28;5092356;28;20046;-73
2022/07/07 11:14:42;;;;;;;6.55;2.10;;;;;;;19.52;89.77;102288.28;5091888;28;20127;-75
2022/07/07 11:20:30;;;;;;;8.93;2.75;;;;;;;19.74;87.99;102286.63;5092056;28;20291;-74
2022/07/07 11:26:23;;;;;;;7.93;2.88;;;;;;;18.77;89.69;102307.91;5091635;28;20396;-72
2022/07/07 11:32:10;;;;;;;8.60;2.88;;;;;;;18.52;92.31;102307.25;5095231;28;20470;-72
2022/07/07 11:34:53;;;;;;;8.75;2.97;;;;;;;18.82;90.67;102316.22;5097743;28;20044;-74
2022/07/07 11:40:41;;;;;;;7.72;3.20;;;;;;;19.28;92.17;102319.19;5095110;28;20104;-74
2022/07/07 11:46:28;;;;;;;7.65;3.08;;;;;;;19.10;89.21;102317.44;5095158;28;20511;-73
2022/07/07 11:52:16;;;;;;;8.90;3.15;;;;;;;19.47;87.99;102329.69;5094858;28;20301;-74
2022/07/07 11:58:05;;;;;;;6.05;2.53;;;;;;;20.16;83.13;102323.56;5094615;28;20089;-74
2022/07/07 12:03:52;;;;;;;9.43;2.75;;;;;;;19.18;94.37;102326.03;5095020;28;20078;-74
2022/07/07 12:09:45;;;;;;;10.32;2.60;;;;;;;19.37;90.64;102332.19;5094380;28;20349;-72
2022/07/07 12:15:36;;;;;;;6.63;2.15;;;;;;;19.80;88.37;102336.41;5094547;28;20127;-71
2022/07/07 12:21:23;;;;;;;7.32;2.05;;;;;;;19.81;81.83;102348.91;5094594;28;20062;-73
2022/07/07 12:27:19;;;;;;;7.45;2.35;;;;;;;20.21;79.63;102353.53;5094433;28;20043;-73
2022/07/07 12:36:33;;;;;;;8.90;2.92;;;;;;;20.20;79.74;102351.88;5094413;28;20135;-72
2022/07/07 12:42:24;;;;;;;6.13;2.40;;;;;;;20.58;77.62;102359.47;5094018;28;20419;-72
2022/07/07 12:48:15;;;;;;;5.22;2.20;;;;;;;21.90;73.31;102359.66;5093945;28;20138;-73
2022/07/07 12:54:02;;;;;;;7.20;1.92;;;;;;;21.59;73.85;102371.22;5094040;28;20039;-73
2022/07/07 12:59:49;;;;;;;7.38;2.42;;;;;;;21.48;71.19;102369.44;5093935;28;20114;-73
2022/07/07 13:05:36;;;;;;;13.75;2.70;;;;;;;21.55;74.40;102391.84;5093863;28;20383;-72
2022/07/07 13:11:23;;;;;;;5.10;1.90;;;;;;;21.88;68.92;102402.66;5093766;28;20285;-72
2022/07/07 13:13:48;;;;;;;4.60;2.07;;;;;;;22.11;66.78;102393.47;5093645;28;20035;-72
2022/07/07 13:16:13;;;;;;;5.30;2.40;;;;;;;22.28;67.09;102407.06;5096684;28;20690;-71
2022/07/07 13:18:39;;;;;;;9.77;2.22;;;;;;;22.31;66.38;102397.53;5093440;28;20392;-71
2022/07/07 13:21:06;;;;;;;8.27;2.70;;;;;;;22.09;68.55;102408.44;5096446;28;20105;-72
2022/07/07 13:26:53;;;;;;;6.85;2.40;;;;;;;20.98;72.99;102424.63;5089461;28;20051;-71
2022/07/07 13:32:43;;;;;;;11.65;3.55;;;;;;;20.70;72.66;102415.41;5093285;28;20277;-72
2022/07/07 13:38:29;;;;;;;11.75;3.35;;;;;;;21.01;70.36;102443.16;5096144;28;20128;-73
2022/07/07 13:44:16;;;;;;;14.25;2.85;;;;;;;20.93;66.97;102443.56;5092861;28;20273;-71
2022/07/07 13:50:04;;;;;;;14.68;3.88;;;;;;;21.14;68.49;102451.03;5093488;28;20542;-72
2022/07/07 13:55:51;;;;;;;15.05;3.58;;;;;;;20.90;68.42;102457.66;5093582;28;20046;-73
2022/07/07 14:01:38;;;;;;;10.88;3.22;;;;;;;20.67;66.38;102462.13;5093010;28;20154;-72
2022/07/07 14:07:25;;;;;;;10.63;2.85;;;;;;;20.53;63.55;102465.34;5093258;28;20426;-74
2022/07/07 14:13:13;;;;;;;10.95;3.40;;;;;;;20.41;63.90;102459.94;5092784;28;20034;-73
2022/07/07 14:22:22;;;;;;;13.63;3.72;;;;;;;20.49;65.68;102465.00;5092067;28;20051;-73
2022/07/07 14:24:47;;;;;;;15.50;3.88;;;;;;;20.67;65.25;102466.72;5089472;28;20464;-72
2022/07/07 14:27:12;;;;;;;19.10;2.95;;;;;;;20.56;61.58;102460.28;5074120;28;20024;-71
2022/07/07 14:29:38;;;;;;;13.25;3.97;;;;;;;20.36;62.28;102465.25;5095228;28;20051;-70
2022/07/07 14:35:25;;;;;;;21.38;4.38;;;;;;;20.54;61.23;102476.00;5092593;28;20080;-71
2022/07/07 14:41:12;;;;;;;23.42;4.53;;;;;;;21.21;58.47;102492.50;5092724;28;20387;-71
2022/07/07 14:46:59;;;;;;;25.98;4.22;;;;;;;21.07;57.70;102493.03;5092253;28;20313;-71
2022/07/07 14:52:46;;;;;;;33.35;4.95;;;;;;;20.17;58.74;102504.47;5095556;28;20070;-71
2022/07/07 14:58:34;;;;;;;19.27;4.50;;;;;;;20.13;59.56;102501.41;5092218;28;20092;-71
2022/07/07 15:04:21;;;;;;;19.40;5.63;;;;;;;20.34;57.92;102503.53;5094113;28;20051;-69
2022/07/07 15:10:09;;;;;;;22.52;4.75;;;;;;;20.76;57.16;102514.22;5095752;28;20065;-71
2022/07/07 15:15:57;;;;;;;15.90;4.00;;;;;;;20.69;58.86;102508.09;5095585;28;20051;-72
2022/07/07 15:21:44;;;;;;;33.72;5.40;;;;;;;20.44;56.73;102508.38;5095228;28;20051;-70
2022/07/07 15:27:31;;;;;;;23.00;5.75;;;;;;;20.19;57.53;102524.09;5095446;28;20059;-70
2022/07/07 15:29:57;;;;;;;24.67;5.43;;;;;;;20.10;57.97;102529.06;5098018;28;20048;-70
2022/07/07 15:35:44;;;;;;;27.70;4.93;;;;;;;20.01;57.25;102542.16;5095029;28;20038;-72
2022/07/07 15:41:33;;;;;;;27.67;5.03;;;;;;;20.08;57.54;102547.47;5097394;28;20319;-70
2022/07/07 15:47:20;;;;;;;20.45;4.15;;;;;;;19.99;56.74;102557.88;5095134;28;20442;-71
2022/07/07 15:53:07;;;;;;;22.38;4.38;;;;;;;20.02;57.25;102557.41;5095059;28;20043;-69
2022/07/07 15:58:54;;;;;;;19.50;5.13;;;;;;;20.17;56.54;102554.19;5094665;28;20277;-72
2022/07/07 16:01:20;;;;;;;16.48;4.40;;;;;;;20.05;56.56;102554.22;5097460;28;20073;-70
2022/07/07 16:07:09;;;;;;;32.30;6.00;;;;;;;19.89;58.23;102546.75;5094757;28;20051;-71
2022/07/07 16:12:56;;;;;;;26.23;5.95;;;;;;;19.78;60.81;102567.41;5094539;28;20043;-71
2022/07/07 16:18:43;;;;;;;26.48;4.95;;;;;;;20.01;60.38;102569.31;5094500;28;20163;-70
2022/07/07 16:24:30;;;;;;;22.45;5.20;;;;;;;19.99;56.56;102573.34;5094772;28;20043;-69
2022/07/07 16:30:20;;;;;;;20.70;4.30;;;;;;;20.00;56.53;102578.53;5094144;28;20161;-71
2022/07/07 16:36:07;;;;;;;25.63;4.63;;;;;;;19.60;58.87;102594.59;5094333;28;20491;-71
2022/07/07 16:41:54;;;;;;;25.05;4.95;;;;;;;19.37;62.74;102592.63;5093992;28;20102;-71
2022/07/07 16:47:41;;;;;;;27.15;5.65;;;;;;;19.20;64.12;102586.16;5094257;28;20073;-71
2022/07/07 16:53:29;;;;;;;33.03;5.53;;;;;;;19.07;66.12;102602.59;5093821;28;20289;-70
2022/07/07 16:59:16;;;;;;;27.48;5.32;;;;;;;19.30;65.65;102602.72;5093817;28;20149;-69
2022/07/07 17:05:04;;;;;;;19.20;5.65;;;;;;;18.85;66.52;102615.78;5094053;28;20043;-71
2022/07/07 17:10:51;;;;;;;31.13;6.90;;;;;;;18.73;66.59;102602.16;5093875;28;20050;-70
2022/07/07 17:16:38;;;;;;;23.63;6.65;;;;;;;18.44;67.85;102603.66;5093738;28;20051;-70
2022/07/07 17:22:24;;;;;;;22.90;5.50;;;;;;;18.02;66.75;102610.72;5093645;28;20046;-71
2022/07/07 17:28:12;;;;;;;24.02;5.57;;;;;;;17.84;66.80;102626.88;5093022;28;20305;-71
2022/07/07 17:33:59;;;;;;;27.63;5.65;;;;;;;18.07;66.96;102613.56;5089928;28;21001;-72
2022/07/07 17:39:46;;;;;;;21.20;5.53;;;;;;;18.35;67.22;102618.56;5093471;28;20523;-72
2022/07/07 17:45:33;;;;;;;25.63;5.32;;;;;;;18.48;66.67;102628.41;5093419;28;20539;-71
2022/07/07 17:51:20;;;;;;;19.90;5.95;;;;;;;18.17;67.82;102635.56;5092876;28;20977;-70
2022/07/07 17:57:07;;;;;;;21.10;5.10;;;;;;;17.95;69.43;102640.53;5092920;28;20039;-72
2022/07/07 18:02:54;;;;;;;27.90;6.13;;;;;;;17.67;71.12;102648.22;5092588;28;20315;-72
2022/07/07 18:08:41;;;;;;;19.35;5.07;;;;;;;17.58;70.92;102654.88;5092759;28;20051;-72
2022/07/07 18:14:29;;;;;;;18.65;5.25;;;;;;;17.51;72.24;102646.81;5092820;28;20503;-70
2022/07/07 18:20:17;;;;;;;19.10;5.13;;;;;;;17.27;73.08;102655.63;5092716;28;20058;-73
2022/07/07 18:26:05;;;;;;;27.08;5.43;;;;;;;17.10;73.07;102668.81;5092917;28;20043;-71
2022/07/07 18:31:52;;;;;;;20.38;5.15;;;;;;;17.15;73.34;102670.88;5092524;28;20511;-72
2022/07/07 18:37:40;;;;;;;21.75;4.78;;;;;;;16.97;74.05;102663.44;5092058;28;20384;-71
2022/07/07 18:43:27;;;;;;;25.95;5.55;;;;;;;16.99;73.19;102674.84;5091977;28;20522;-72
2022/07/07 18:49:14;;;;;;;12.80;4.75;;;;;;;16.98;72.83;102690.25;5092247;28;20446;-71
2022/07/07 18:55:01;;;;;;;25.58;5.45;;;;;;;16.90;72.73;102692.34;5092252;28;20107;-71
2022/07/07 19:00:48;;;;;;;21.02;5.35;;;;;;;16.79;71.64;102698.41;5091917;28;20088;-73
2022/07/07 19:06:36;;;;;;;19.85;5.10;;;;;;;16.70;71.07;102703.16;5092506;28;20050;-74
2022/07/07 19:12:24;;;;;;;23.02;5.20;;;;;;;16.53;72.11;102701.91;5092096;28;20047;-71
2022/07/07 19:18:11;;;;;;;21.15;4.90;;;;;;;16.39;72.80;102712.69;5095073;28;20532;-72
2022/07/07 19:23:57;;;;;;;15.27;5.25;;;;;;;16.37;73.60;102720.16;5091726;28;20039;-70
2022/07/07 19:29:45;;;;;;;15.88;4.15;;;;;;;16.28;74.50;102728.69;5091541;28;20530;-72
2022/07/07 19:35:31;;;;;;;13.05;3.97;;;;;;;16.31;74.17;102741.78;5091507;28;20293;-71
2022/07/07 19:41:18;;;;;;;17.77;4.22;;;;;;;16.05;75.82;102748.78;5091718;28;20316;-69
2022/07/07 19:47:06;;;;;;;14.65;4.38;;;;;;;16.07;75.52;102760.19;5091561;28;20047;-69
2022/07/07 19:52:53;;;;;;;14.88;3.53;;;;;;;15.95;75.88;102767.22;5094953;28;20047;-71
2022/07/07 19:58:40;;;;;;;15.88;3.70;;;;;;;15.84;77.18;102764.25;5097283;28;20178;-70
2022/07/07 20:04:27;;;;;;;18.75;4.68;;;;;;;15.74;78.12;102764.66;5094737;28;20531;-71
2022/07/07 20:10:14;;;;;;;26.55;4.78;;;;;;;15.70;79.04;102790.34;5094636;28;20066;-72
2022/07/07 20:16:01;;;;;;;21.08;4.20;;;;;;;15.65;79.89;102798.22;5094340;28;20055;-69
2022/07/07 20:21:49;;;;;;;17.92;4.32;;;;;;;15.56;80.34;102781.31;5094516;28;20171;-70
2022/07/07 20:27:36;;;;;;;20.55;4.32;;;;;;;15.43;82.19;102797.44;5094367;28;20353;-70
2022/07/07 20:33:23;;;;;;;27.48;5.95;;;;;;;15.47;81.76;102809.47;5094271;28;20043;-68
2022/07/07 20:39:10;;;;;;;14.55;4.07;;;;;;;15.40;82.81;102819.41;5094280;28;20285;-71
2022/07/07 20:44:57;;;;;;;18.85;4.10;;;;;;;15.41;82.76;102823.75;5094333;28;20051;-70
2022/07/07 20:50:44;;;;;;;17.60;3.97;;;;;;;15.36;83.28;102835.16;5094029;28;20094;-68
2022/07/07 20:56:31;;;;;;;18.15;4.20;;;;;;;15.32;83.88;102841.09;5093781;28;20879;-69
2022/07/07 21:02:23;;;;;;;21.25;4.30;;;;;;;15.22;84.24;102832.53;5093045;28;20775;-71
2022/07/07 21:08:11;;;;;;;20.60;4.25;;;;;;;15.23;84.97;102840.41;5093968;28;20069;-70
2022/07/07 21:13:58;;;;;;;18.52;4.57;;;;;;;15.24;84.78;102849.34;5093793;28;20404;-70
2022/07/07 21:19:45;;;;;;;18.33;4.50;;;;;;;15.27;85.55;102865.13;5093860;28;20093;-73
2022/07/07 21:25:33;;;;;;;14.52;3.88;;;;;;;15.17;85.38;102866.28;5093671;28;20093;-74
2022/07/07 21:31:20;;;;;;;16.55;3.75;;;;;;;15.12;86.37;102870.59;5093556;28;20441;-71
2022/07/07 21:37:10;;;;;;;16.83;4.70;;;;;;;15.10;86.97;102873.50;5093944;28;20089;-73
2022/07/07 21:42:57;;;;;;;15.48;4.20;;;;;;;15.05;87.05;102875.13;5093978;28;20042;-74
2022/07/07 21:48:44;;;;;;;16.35;4.60;;;;;;;15.02;87.04;102878.16;5093369;28;20127;-72
2022/07/07 21:54:32;;;;;;;16.75;4.40;;;;;;;14.94;87.50;102868.38;5093242;28;20051;-73
2022/07/07 21:56:57;;;;;;;19.88;4.07;;;;;;;14.97;87.68;102872.53;5095856;28;20044;-72
2022/07/07 21:59:24;;;;;;;14.85;3.92;;;;;;;14.98;87.24;102866.94;5092799;28;20035;-73
2022/07/07 22:11:17;;;;;;;21.65;4.57;;;;;;;14.90;88.11;102893.19;5092951;28;20039;-73
2022/07/07 22:17:04;;;;;;;16.75;3.90;;;;;;;14.77;88.62;102896.59;5092909;28;20101;-74
2022/07/07 22:22:51;;;;;;;27.65;5.40;;;;;;;14.76;88.99;102892.25;5092951;28;20097;-72
2022/07/07 22:25:17;;;;;;;17.65;4.75;;;;;;;14.73;88.89;102890.72;5092451;28;20028;-73
2022/07/07 22:31:04;;;;;;;15.98;4.20;;;;;;;14.74;89.50;102896.94;5092717;28;20082;-72
2022/07/07 22:36:51;;;;;;;21.55;4.75;;;;;;;14.72;89.68;102890.94;5092457;28;20391;-73
2022/07/07 22:42:38;;;;;;;17.02;4.35;;;;;;;14.73;89.19;102888.03;5092385;28;20269;-73
2022/07/07 22:48:25;;;;;;;17.40;4.18;;;;;;;14.65;89.63;102898.09;5092447;28;20047;-71
2022/07/07 22:54:12;;;;;;;19.05;4.80;;;;;;;14.73;89.55;102904.19;5094960;28;20046;-71
2022/07/07 22:59:59;;;;;;;18.30;4.65;;;;;;;14.72;89.31;102901.69;5092134;28;20042;-71
2022/07/07 23:05:46;;;;;;;25.52;4.50;;;;;;;14.76;89.65;102908.41;5092022;28;20638;-71